Portada
METAR-TAF:

METAR-TAF

Aeroports :

Bordj Badji Mokhtar, Algèria

latitud: 21-22-30N, longitud: 000-55-26E, altitud: 396 m

Observació

L'informe es va fer fa 50 minuts, a les 15:00 UTC
Vent 5 kt del Nord
Temperatura 29°C
Pressió 1014 hPa
Visibilitat 10 km o més
sense núvols per sota de 1500 mi sense presència de cumulonimbus.

METAR: DATM 261500Z 36005KT CAVOK 29/// Q1014

Hora: 16:50 (15:50 UTC)

Pronòstic

L'informe es va fer fa 1 hora i 50 minuts, a les 14:00 UTC
Pronòstic vàlid del 26 a les 15 UTC al 26 a les 24 UTC
Vent 8 kt del Nord-Est
Visibilitat 10 km o més
sense núvols per sota de 1500 mi sense presència de cumulonimbus.

TAF: DATM 261400Z 2615/2624 04008KT CAVOK

Observacions i pronòstics meteorològics de més de 4000 aeroports (METAR i TAF).

Les estacions disponibles són els punts grocs i vermells al mapa.

Posi el ratolí al punt desitjat per veure el nom de l'estació.

Feu clic per veure les observacions i els pronòstics meteorològics.

Per canviar el mapa: feu clic els botons verds amb una creu de color negre per apropar; al botó verd amb un guió per allunyar la imatge; o en les fletxes verdes per a mapes adjacents.


METAR-TAF: